sensor_id;sensor_type;location;lat;lon;timestamp;temperature;humidity
15877;DHT22;8037;51.666;7.834;2022-07-12T00:02:15;17.90;99.90
15877;DHT22;8037;51.666;7.834;2022-07-12T00:11:59;17.70;99.90
15877;DHT22;8037;51.666;7.834;2022-07-12T00:19:17;17.70;99.90
15877;DHT22;8037;51.666;7.834;2022-07-12T00:48:33;17.50;99.90
15877;DHT22;8037;51.666;7.834;2022-07-12T00:51:00;17.40;99.90
15877;DHT22;8037;51.666;7.834;2022-07-12T00:55:53;17.40;99.90
15877;DHT22;8037;51.666;7.834;2022-07-12T00:58:20;17.40;99.90
15877;DHT22;8037;51.666;7.834;2022-07-12T01:08:04;17.40;99.90
15877;DHT22;8037;51.666;7.834;2022-07-12T01:10:31;17.30;99.90
15877;DHT22;8037;51.666;7.834;2022-07-12T01:12:57;17.20;99.90
15877;DHT22;8037;51.666;7.834;2022-07-12T01:20:16;17.10;99.90
15877;DHT22;8037;51.666;7.834;2022-07-12T01:22:51;17.10;99.90
15877;DHT22;8037;51.666;7.834;2022-07-12T01:30:10;17.00;99.90
15877;DHT22;8037;51.666;7.834;2022-07-12T01:35:03;17.00;99.90
15877;DHT22;8037;51.666;7.834;2022-07-12T01:37:34;17.00;99.90
15877;DHT22;8037;51.666;7.834;2022-07-12T01:42:27;17.00;99.90
15877;DHT22;8037;51.666;7.834;2022-07-12T01:44:53;17.00;99.90
15877;DHT22;8037;51.666;7.834;2022-07-12T01:47:20;17.00;99.90
15877;DHT22;8037;51.666;7.834;2022-07-12T01:49:46;16.90;99.90
15877;DHT22;8037;51.666;7.834;2022-07-12T01:52:13;16.90;99.90
15877;DHT22;8037;51.666;7.834;2022-07-12T02:01:57;16.80;99.90
15877;DHT22;8037;51.666;7.834;2022-07-12T02:09:16;16.70;99.90
15877;DHT22;8037;51.666;7.834;2022-07-12T02:11:43;16.70;99.90
15877;DHT22;8037;51.666;7.834;2022-07-12T02:16:35;16.60;99.90
15877;DHT22;8037;51.666;7.834;2022-07-12T02:19:01;16.60;99.90
15877;DHT22;8037;51.666;7.834;2022-07-12T02:26:19;16.50;99.90
15877;DHT22;8037;51.666;7.834;2022-07-12T02:33:37;16.30;99.90
15877;DHT22;8037;51.666;7.834;2022-07-12T02:43:25;16.10;99.90
15877;DHT22;8037;51.666;7.834;2022-07-12T02:46:08;16.00;99.90
15877;DHT22;8037;51.666;7.834;2022-07-12T02:48:34;16.10;99.90
15877;DHT22;8037;51.666;7.834;2022-07-12T02:51:01;16.10;99.90
15877;DHT22;8037;51.666;7.834;2022-07-12T02:58:19;16.10;99.90
15877;DHT22;8037;51.666;7.834;2022-07-12T03:03:12;16.10;99.90
15877;DHT22;8037;51.666;7.834;2022-07-12T03:08:04;16.00;99.90
15877;DHT22;8037;51.666;7.834;2022-07-12T03:20:14;16.00;99.90
15877;DHT22;8037;51.666;7.834;2022-07-12T03:22:43;16.10;99.90
15877;DHT22;8037;51.666;7.834;2022-07-12T03:25:11;16.10;99.90
15877;DHT22;8037;51.666;7.834;2022-07-12T03:30:03;16.10;99.90
15877;DHT22;8037;51.666;7.834;2022-07-12T03:44:39;16.40;99.90
15877;DHT22;8037;51.666;7.834;2022-07-12T03:56:48;17.70;99.90
15877;DHT22;8037;51.666;7.834;2022-07-12T04:06:52;19.40;99.90
15877;DHT22;8037;51.666;7.834;2022-07-12T04:11:43;20.30;99.90
15877;DHT22;8037;51.666;7.834;2022-07-12T04:21:27;22.00;99.90
15877;DHT22;8037;51.666;7.834;2022-07-12T04:23:52;22.40;99.90
15877;DHT22;8037;51.666;7.834;2022-07-12T04:26:18;22.80;99.90
15877;DHT22;8037;51.666;7.834;2022-07-12T04:28:43;23.20;99.90
15877;DHT22;8037;51.666;7.834;2022-07-12T04:33:35;23.50;99.90
15877;DHT22;8037;51.666;7.834;2022-07-12T04:36:01;23.80;99.90
15877;DHT22;8037;51.666;7.834;2022-07-12T04:38:26;24.00;99.90
15877;DHT22;8037;51.666;7.834;2022-07-12T04:40:52;24.30;99.90
15877;DHT22;8037;51.666;7.834;2022-07-12T04:45:44;24.90;99.90
15877;DHT22;8037;51.666;7.834;2022-07-12T04:48:12;25.20;99.90
15877;DHT22;8037;51.666;7.834;2022-07-12T04:50:38;25.50;99.90
15877;DHT22;8037;51.666;7.834;2022-07-12T04:53:04;25.60;99.90
15877;DHT22;8037;51.666;7.834;2022-07-12T04:55:29;25.60;99.90
15877;DHT22;8037;51.666;7.834;2022-07-12T04:57:55;25.80;99.90
15877;DHT22;8037;51.666;7.834;2022-07-12T05:00:22;26.00;99.90
15877;DHT22;8037;51.666;7.834;2022-07-12T05:05:14;26.40;99.70
15877;DHT22;8037;51.666;7.834;2022-07-12T05:07:40;26.60;99.40
15877;DHT22;8037;51.666;7.834;2022-07-12T05:10:06;26.60;99.20
15877;DHT22;8037;51.666;7.834;2022-07-12T05:12:31;26.50;99.10
15877;DHT22;8037;51.666;7.834;2022-07-12T05:14:57;26.30;99.30
15877;DHT22;8037;51.666;7.834;2022-07-12T05:17:22;26.00;99.70
15877;DHT22;8037;51.666;7.834;2022-07-12T05:19:48;26.00;99.90
15877;DHT22;8037;51.666;7.834;2022-07-12T05:22:13;25.50;99.90
15877;DHT22;8037;51.666;7.834;2022-07-12T05:24:39;25.50;99.90
15877;DHT22;8037;51.666;7.834;2022-07-12T05:27:05;26.20;99.90
15877;DHT22;8037;51.666;7.834;2022-07-12T05:29:30;26.10;99.90
15877;DHT22;8037;51.666;7.834;2022-07-12T05:31:56;26.40;99.90
15877;DHT22;8037;51.666;7.834;2022-07-12T05:36:48;26.50;99.90
15877;DHT22;8037;51.666;7.834;2022-07-12T05:39:13;26.70;99.60
15877;DHT22;8037;51.666;7.834;2022-07-12T05:41:39;26.70;99.90
15877;DHT22;8037;51.666;7.834;2022-07-12T05:44:04;26.60;99.90
15877;DHT22;8037;51.666;7.834;2022-07-12T05:46:30;26.60;99.90
15877;DHT22;8037;51.666;7.834;2022-07-12T05:48:56;26.50;99.90
15877;DHT22;8037;51.666;7.834;2022-07-12T05:51:21;26.50;99.90
15877;DHT22;8037;51.666;7.834;2022-07-12T05:54:06;26.50;99.90
15877;DHT22;8037;51.666;7.834;2022-07-12T05:56:31;26.50;99.90
15877;DHT22;8037;51.666;7.834;2022-07-12T05:58:57;26.50;99.90
15877;DHT22;8037;51.666;7.834;2022-07-12T06:01:23;26.60;99.90
15877;DHT22;8037;51.666;7.834;2022-07-12T06:03:48;26.60;99.90
15877;DHT22;8037;51.666;7.834;2022-07-12T06:06:14;26.60;99.90
15877;DHT22;8037;51.666;7.834;2022-07-12T06:08:40;26.20;99.90
15877;DHT22;8037;51.666;7.834;2022-07-12T06:11:05;26.00;99.90
15877;DHT22;8037;51.666;7.834;2022-07-12T06:13:31;25.90;99.90
15877;DHT22;8037;51.666;7.834;2022-07-12T06:15:56;25.80;99.90
15877;DHT22;8037;51.666;7.834;2022-07-12T06:18:22;25.60;99.90
15877;DHT22;8037;51.666;7.834;2022-07-12T06:20:48;25.60;99.90
15877;DHT22;8037;51.666;7.834;2022-07-12T06:23:13;25.10;99.90
15877;DHT22;8037;51.666;7.834;2022-07-12T06:25:39;24.60;99.90
15877;DHT22;8037;51.666;7.834;2022-07-12T06:28:06;24.40;99.90
15877;DHT22;8037;51.666;7.834;2022-07-12T06:30:31;24.30;99.90
15877;DHT22;8037;51.666;7.834;2022-07-12T06:32:57;24.20;99.90
15877;DHT22;8037;51.666;7.834;2022-07-12T06:35:23;24.20;99.90
15877;DHT22;8037;51.666;7.834;2022-07-12T06:37:48;24.20;99.90
15877;DHT22;8037;51.666;7.834;2022-07-12T06:40:14;24.00;99.90
15877;DHT22;8037;51.666;7.834;2022-07-12T06:42:43;23.90;99.90
15877;DHT22;8037;51.666;7.834;2022-07-12T06:45:09;24.00;99.90
15877;DHT22;8037;51.666;7.834;2022-07-12T06:47:35;23.90;99.90
15877;DHT22;8037;51.666;7.834;2022-07-12T06:50:01;23.90;99.90
15877;DHT22;8037;51.666;7.834;2022-07-12T06:52:27;24.00;99.90
15877;DHT22;8037;51.666;7.834;2022-07-12T06:54:53;23.90;99.90
15877;DHT22;8037;51.666;7.834;2022-07-12T06:57:18;23.90;99.90
15877;DHT22;8037;51.666;7.834;2022-07-12T06:59:44;24.00;99.90
15877;DHT22;8037;51.666;7.834;2022-07-12T07:02:09;24.00;99.90
15877;DHT22;8037;51.666;7.834;2022-07-12T07:04:35;24.10;99.90
15877;DHT22;8037;51.666;7.834;2022-07-12T07:07:01;24.10;99.90
15877;DHT22;8037;51.666;7.834;2022-07-12T07:09:26;24.30;99.90
15877;DHT22;8037;51.666;7.834;2022-07-12T07:11:52;24.40;99.90
15877;DHT22;8037;51.666;7.834;2022-07-12T07:14:19;24.40;99.90
15877;DHT22;8037;51.666;7.834;2022-07-12T07:16:44;24.50;99.90
15877;DHT22;8037;51.666;7.834;2022-07-12T07:19:10;24.70;99.90
15877;DHT22;8037;51.666;7.834;2022-07-12T07:21:36;21.30;99.90
15877;DHT22;8037;51.666;7.834;2022-07-12T07:24:01;24.90;99.90
15877;DHT22;8037;51.666;7.834;2022-07-12T07:26:28;25.10;99.90
15877;DHT22;8037;51.666;7.834;2022-07-12T07:28:53;25.20;99.90
15877;DHT22;8037;51.666;7.834;2022-07-12T07:31:38;25.20;99.90
15877;DHT22;8037;51.666;7.834;2022-07-12T07:34:04;25.00;99.90
15877;DHT22;8037;51.666;7.834;2022-07-12T07:36:30;24.90;99.90
15877;DHT22;8037;51.666;7.834;2022-07-12T07:38:57;24.80;99.90
15877;DHT22;8037;51.666;7.834;2022-07-12T07:41:23;24.80;99.90
15877;DHT22;8037;51.666;7.834;2022-07-12T07:43:48;24.40;99.90
15877;DHT22;8037;51.666;7.834;2022-07-12T07:46:14;24.20;99.90
15877;DHT22;8037;51.666;7.834;2022-07-12T07:48:40;23.90;99.90
15877;DHT22;8037;51.666;7.834;2022-07-12T07:51:05;23.60;99.90
15877;DHT22;8037;51.666;7.834;2022-07-12T07:53:31;23.30;99.90
15877;DHT22;8037;51.666;7.834;2022-07-12T07:55:56;23.30;99.90
15877;DHT22;8037;51.666;7.834;2022-07-12T08:00:52;23.90;99.90
15877;DHT22;8037;51.666;7.834;2022-07-12T08:03:19;24.20;99.90
15877;DHT22;8037;51.666;7.834;2022-07-12T08:05:45;24.30;99.90
15877;DHT22;8037;51.666;7.834;2022-07-12T08:08:10;24.40;99.90
15877;DHT22;8037;51.666;7.834;2022-07-12T08:10:36;24.60;99.90
15877;DHT22;8037;51.666;7.834;2022-07-12T08:13:01;24.80;99.90
15877;DHT22;8037;51.666;7.834;2022-07-12T08:15:27;24.90;99.90
15877;DHT22;8037;51.666;7.834;2022-07-12T08:17:53;20.10;99.90
15877;DHT22;8037;51.666;7.834;2022-07-12T08:20:18;25.20;99.90
15877;DHT22;8037;51.666;7.834;2022-07-12T08:22:44;25.30;99.90
15877;DHT22;8037;51.666;7.834;2022-07-12T08:25:11;25.40;99.90
15877;DHT22;8037;51.666;7.834;2022-07-12T08:27:37;25.50;99.90
15877;DHT22;8037;51.666;7.834;2022-07-12T08:30:02;25.50;99.90
15877;DHT22;8037;51.666;7.834;2022-07-12T08:32:28;25.50;99.90
15877;DHT22;8037;51.666;7.834;2022-07-12T08:34:54;25.30;99.90
15877;DHT22;8037;51.666;7.834;2022-07-12T08:37:19;25.30;99.90
15877;DHT22;8037;51.666;7.834;2022-07-12T08:39:45;25.30;99.90
15877;DHT22;8037;51.666;7.834;2022-07-12T08:42:14;25.40;99.90
15877;DHT22;8037;51.666;7.834;2022-07-12T08:44:40;25.40;99.90
15877;DHT22;8037;51.666;7.834;2022-07-12T08:47:07;25.40;99.90
15877;DHT22;8037;51.666;7.834;2022-07-12T08:49:33;25.30;99.90
15877;DHT22;8037;51.666;7.834;2022-07-12T08:51:59;25.30;99.90
15877;DHT22;8037;51.666;7.834;2022-07-12T08:54:24;25.20;99.90
15877;DHT22;8037;51.666;7.834;2022-07-12T08:56:50;25.00;99.90
15877;DHT22;8037;51.666;7.834;2022-07-12T08:59:16;25.00;99.90
15877;DHT22;8037;51.666;7.834;2022-07-12T09:01:44;25.10;99.90
15877;DHT22;8037;51.666;7.834;2022-07-12T09:04:12;25.10;99.90
15877;DHT22;8037;51.666;7.834;2022-07-12T09:06:38;25.20;99.90
15877;DHT22;8037;51.666;7.834;2022-07-12T09:09:04;25.20;99.90
15877;DHT22;8037;51.666;7.834;2022-07-12T09:11:29;25.30;99.90
15877;DHT22;8037;51.666;7.834;2022-07-12T09:13:55;25.40;99.90
15877;DHT22;8037;51.666;7.834;2022-07-12T09:16:25;25.30;99.90
15877;DHT22;8037;51.666;7.834;2022-07-12T09:18:52;25.00;99.90
15877;DHT22;8037;51.666;7.834;2022-07-12T09:21:36;25.00;99.90
15877;DHT22;8037;51.666;7.834;2022-07-12T09:24:01;24.90;99.90
15877;DHT22;8037;51.666;7.834;2022-07-12T09:26:31;24.90;99.90
15877;DHT22;8037;51.666;7.834;2022-07-12T09:29:08;25.00;99.90
15877;DHT22;8037;51.666;7.834;2022-07-12T09:31:53;25.00;99.90
15877;DHT22;8037;51.666;7.834;2022-07-12T09:34:38;25.20;99.90
15877;DHT22;8037;51.666;7.834;2022-07-12T09:37:24;25.30;99.90
15877;DHT22;8037;51.666;7.834;2022-07-12T09:39:54;25.40;99.90
15877;DHT22;8037;51.666;7.834;2022-07-12T09:42:20;25.50;99.90
15877;DHT22;8037;51.666;7.834;2022-07-12T09:44:47;25.50;99.90
15877;DHT22;8037;51.666;7.834;2022-07-12T09:47:14;25.50;99.90
15877;DHT22;8037;51.666;7.834;2022-07-12T09:49:45;25.60;99.90
15877;DHT22;8037;51.666;7.834;2022-07-12T09:52:12;25.50;99.90
15877;DHT22;8037;51.666;7.834;2022-07-12T09:54:40;25.50;99.90
15877;DHT22;8037;51.666;7.834;2022-07-12T09:57:13;25.40;99.90
15877;DHT22;8037;51.666;7.834;2022-07-12T09:59:43;25.30;99.90
15877;DHT22;8037;51.666;7.834;2022-07-12T10:02:10;25.20;99.90
15877;DHT22;8037;51.666;7.834;2022-07-12T10:04:41;25.20;99.90
15877;DHT22;8037;51.666;7.834;2022-07-12T10:07:08;25.00;99.90
15877;DHT22;8037;51.666;7.834;2022-07-12T10:09:35;25.00;99.90
15877;DHT22;8037;51.666;7.834;2022-07-12T10:12:02;29.70;99.90
15877;DHT22;8037;51.666;7.834;2022-07-12T10:14:28;25.10;99.90
15877;DHT22;8037;51.666;7.834;2022-07-12T10:16:55;25.20;99.90
15877;DHT22;8037;51.666;7.834;2022-07-12T10:19:26;25.40;99.90
15877;DHT22;8037;51.666;7.834;2022-07-12T10:21:54;25.40;99.90
15877;DHT22;8037;51.666;7.834;2022-07-12T10:29:23;25.80;97.80
15877;DHT22;8037;51.666;7.834;2022-07-12T10:31:50;25.80;97.50
15877;DHT22;8037;51.666;7.834;2022-07-12T10:34:23;25.90;98.30
15877;DHT22;8037;51.666;7.834;2022-07-12T10:39:29;26.00;97.30
15877;DHT22;8037;51.666;7.834;2022-07-12T10:44:38;26.00;97.80
15877;DHT22;8037;51.666;7.834;2022-07-12T10:47:04;26.10;98.50
15877;DHT22;8037;51.666;7.834;2022-07-12T10:49:31;26.20;98.60
15877;DHT22;8037;51.666;7.834;2022-07-12T10:54:46;26.30;97.60
15877;DHT22;8037;51.666;7.834;2022-07-12T11:00:00;26.40;96.50
15877;DHT22;8037;51.666;7.834;2022-07-12T11:02:27;26.40;95.80
15877;DHT22;8037;51.666;7.834;2022-07-12T11:04:53;26.30;95.90
15877;DHT22;8037;51.666;7.834;2022-07-12T11:07:19;26.40;96.20
15877;DHT22;8037;51.666;7.834;2022-07-12T11:09:44;26.40;96.00
15877;DHT22;8037;51.666;7.834;2022-07-12T11:12:10;26.40;96.20
15877;DHT22;8037;51.666;7.834;2022-07-12T11:14:35;26.20;95.30
15877;DHT22;8037;51.666;7.834;2022-07-12T11:17:01;26.10;95.70
15877;DHT22;8037;51.666;7.834;2022-07-12T11:19:29;26.00;96.20
15877;DHT22;8037;51.666;7.834;2022-07-12T11:21:56;26.00;95.90
15877;DHT22;8037;51.666;7.834;2022-07-12T11:24:30;26.10;94.70
15877;DHT22;8037;51.666;7.834;2022-07-12T11:26:56;26.00;94.50
15877;DHT22;8037;51.666;7.834;2022-07-12T11:29:23;26.00;95.30
15877;DHT22;8037;51.666;7.834;2022-07-12T11:32:00;26.00;95.50
15877;DHT22;8037;51.666;7.834;2022-07-12T11:34:26;26.20;96.00
15877;DHT22;8037;51.666;7.834;2022-07-12T11:36:59;26.20;95.00
15877;DHT22;8037;51.666;7.834;2022-07-12T11:39:36;26.30;94.40
15877;DHT22;8037;51.666;7.834;2022-07-12T11:42:03;26.30;94.30
15877;DHT22;8037;51.666;7.834;2022-07-12T11:44:45;26.50;94.40
15877;DHT22;8037;51.666;7.834;2022-07-12T11:47:11;26.40;94.40
15877;DHT22;8037;51.666;7.834;2022-07-12T11:49:48;26.50;93.70
15877;DHT22;8037;51.666;7.834;2022-07-12T11:52:19;26.50;94.10
15877;DHT22;8037;51.666;7.834;2022-07-12T11:54:45;26.50;92.80
15877;DHT22;8037;51.666;7.834;2022-07-12T11:57:12;26.50;93.30
15877;DHT22;8037;51.666;7.834;2022-07-12T11:59:38;26.50;92.20
15877;DHT22;8037;51.666;7.834;2022-07-12T12:02:05;26.50;92.30
15877;DHT22;8037;51.666;7.834;2022-07-12T12:06:58;26.60;91.60
15877;DHT22;8037;51.666;7.834;2022-07-12T12:09:24;26.60;92.00
15877;DHT22;8037;51.666;7.834;2022-07-12T12:11:50;26.80;91.60
15877;DHT22;8037;51.666;7.834;2022-07-12T12:14:15;26.80;90.90
15877;DHT22;8037;51.666;7.834;2022-07-12T12:16:41;26.90;89.40
15877;DHT22;8037;51.666;7.834;2022-07-12T12:19:10;24.50;87.30
15877;DHT22;8037;51.666;7.834;2022-07-12T12:21:37;26.80;88.90
15877;DHT22;8037;51.666;7.834;2022-07-12T12:24:09;26.80;87.70
15877;DHT22;8037;51.666;7.834;2022-07-12T12:26:35;26.70;88.30
15877;DHT22;8037;51.666;7.834;2022-07-12T12:29:01;26.70;89.10
15877;DHT22;8037;51.666;7.834;2022-07-12T12:31:28;26.70;90.10
15877;DHT22;8037;51.666;7.834;2022-07-12T12:33:54;26.70;88.10
15877;DHT22;8037;51.666;7.834;2022-07-12T12:36:29;26.80;89.20
15877;DHT22;8037;51.666;7.834;2022-07-12T12:38:59;26.80;87.30
15877;DHT22;8037;51.666;7.834;2022-07-12T12:41:27;26.90;87.40
15877;DHT22;8037;51.666;7.834;2022-07-12T12:44:04;26.90;87.00
15877;DHT22;8037;51.666;7.834;2022-07-12T12:46:55;26.90;85.80
15877;DHT22;8037;51.666;7.834;2022-07-12T12:49:43;26.90;85.40
15877;DHT22;8037;51.666;7.834;2022-07-12T12:52:09;26.90;85.00
15877;DHT22;8037;51.666;7.834;2022-07-12T12:54:36;26.90;85.10
15877;DHT22;8037;51.666;7.834;2022-07-12T12:57:04;26.80;85.80
15877;DHT22;8037;51.666;7.834;2022-07-12T12:59:30;26.90;84.80
15877;DHT22;8037;51.666;7.834;2022-07-12T13:01:56;26.90;84.20
15877;DHT22;8037;51.666;7.834;2022-07-12T13:04:22;26.90;84.60
15877;DHT22;8037;51.666;7.834;2022-07-12T13:11:40;27.00;83.80
15877;DHT22;8037;51.666;7.834;2022-07-12T13:14:05;27.00;82.40
15877;DHT22;8037;51.666;7.834;2022-07-12T13:16:31;27.00;84.50
15877;DHT22;8037;51.666;7.834;2022-07-12T13:18:56;27.00;85.30
15877;DHT22;8037;51.666;7.834;2022-07-12T13:21:22;27.00;82.50
15877;DHT22;8037;51.666;7.834;2022-07-12T13:23:47;27.00;82.40
15877;DHT22;8037;51.666;7.834;2022-07-12T13:26:13;27.00;83.00
15877;DHT22;8037;51.666;7.834;2022-07-12T13:28:38;26.80;78.90
15877;DHT22;8037;51.666;7.834;2022-07-12T13:31:04;27.00;79.00
15877;DHT22;8037;51.666;7.834;2022-07-12T13:33:30;27.10;80.10
15877;DHT22;8037;51.666;7.834;2022-07-12T13:35:56;27.10;81.80
15877;DHT22;8037;51.666;7.834;2022-07-12T13:40:48;26.90;75.20
15877;DHT22;8037;51.666;7.834;2022-07-12T13:43:13;26.90;76.10
15877;DHT22;8037;51.666;7.834;2022-07-12T13:45:39;26.90;76.40
15877;DHT22;8037;51.666;7.834;2022-07-12T13:48:09;27.00;77.20
15877;DHT22;8037;51.666;7.834;2022-07-12T13:50:35;27.10;75.20
15877;DHT22;8037;51.666;7.834;2022-07-12T13:53:00;27.10;75.10
15877;DHT22;8037;51.666;7.834;2022-07-12T13:55:26;27.20;74.30
15877;DHT22;8037;51.666;7.834;2022-07-12T13:57:52;27.30;73.70
15877;DHT22;8037;51.666;7.834;2022-07-12T14:00:18;27.50;75.30
15877;DHT22;8037;51.666;7.834;2022-07-12T14:02:46;27.50;75.10
15877;DHT22;8037;51.666;7.834;2022-07-12T14:05:13;27.60;73.60
15877;DHT22;8037;51.666;7.834;2022-07-12T14:07:40;27.60;75.70
15877;DHT22;8037;51.666;7.834;2022-07-12T14:10:08;27.70;71.80
15877;DHT22;8037;51.666;7.834;2022-07-12T14:12:34;27.70;72.10
15877;DHT22;8037;51.666;7.834;2022-07-12T14:15:00;27.80;72.00
15877;DHT22;8037;51.666;7.834;2022-07-12T14:17:44;27.80;70.60
15877;DHT22;8037;51.666;7.834;2022-07-12T14:20:11;27.90;71.20
15877;DHT22;8037;51.666;7.834;2022-07-12T14:22:38;27.90;68.90
15877;DHT22;8037;51.666;7.834;2022-07-12T14:25:04;27.90;72.80
15877;DHT22;8037;51.666;7.834;2022-07-12T14:27:31;27.90;74.00
15877;DHT22;8037;51.666;7.834;2022-07-12T14:29:57;27.90;74.90
15877;DHT22;8037;51.666;7.834;2022-07-12T14:32:24;27.80;73.60
15877;DHT22;8037;51.666;7.834;2022-07-12T14:34:50;27.80;73.90
15877;DHT22;8037;51.666;7.834;2022-07-12T14:37:15;27.80;75.00
15877;DHT22;8037;51.666;7.834;2022-07-12T14:39:41;27.90;73.60
15877;DHT22;8037;51.666;7.834;2022-07-12T14:42:07;27.90;70.70
15877;DHT22;8037;51.666;7.834;2022-07-12T14:44:32;28.00;71.20
15877;DHT22;8037;51.666;7.834;2022-07-12T14:46:58;28.10;72.00
15877;DHT22;8037;51.666;7.834;2022-07-12T14:49:24;28.10;72.50
15877;DHT22;8037;51.666;7.834;2022-07-12T14:51:50;28.10;70.10
15877;DHT22;8037;51.666;7.834;2022-07-12T14:54:16;28.10;71.90
15877;DHT22;8037;51.666;7.834;2022-07-12T14:59:07;28.20;72.70
15877;DHT22;8037;51.666;7.834;2022-07-12T15:01:33;28.20;73.80
15877;DHT22;8037;51.666;7.834;2022-07-12T15:03:58;28.20;72.60
15877;DHT22;8037;51.666;7.834;2022-07-12T15:06:24;28.20;73.40
15877;DHT22;8037;51.666;7.834;2022-07-12T15:08:54;28.10;72.90
15877;DHT22;8037;51.666;7.834;2022-07-12T15:11:20;28.10;73.90
15877;DHT22;8037;51.666;7.834;2022-07-12T15:13:46;28.10;71.20
15877;DHT22;8037;51.666;7.834;2022-07-12T15:16:12;28.10;70.80
15877;DHT22;8037;51.666;7.834;2022-07-12T15:18:37;28.10;70.20
15877;DHT22;8037;51.666;7.834;2022-07-12T15:21:03;28.10;67.80
15877;DHT22;8037;51.666;7.834;2022-07-12T15:23:29;28.10;69.80
15877;DHT22;8037;51.666;7.834;2022-07-12T15:25:56;28.10;68.10
15877;DHT22;8037;51.666;7.834;2022-07-12T15:28:25;28.10;66.60
15877;DHT22;8037;51.666;7.834;2022-07-12T15:30:50;28.20;67.80
15877;DHT22;8037;51.666;7.834;2022-07-12T15:33:16;28.20;67.80
15877;DHT22;8037;51.666;7.834;2022-07-12T15:35:42;28.10;65.50
15877;DHT22;8037;51.666;7.834;2022-07-12T15:38:07;28.10;62.10
15877;DHT22;8037;51.666;7.834;2022-07-12T15:40:37;28.10;62.40
15877;DHT22;8037;51.666;7.834;2022-07-12T15:45:29;28.20;65.30
15877;DHT22;8037;51.666;7.834;2022-07-12T15:47:55;28.10;65.70
15877;DHT22;8037;51.666;7.834;2022-07-12T15:50:20;28.20;65.00
15877;DHT22;8037;51.666;7.834;2022-07-12T15:52:46;28.20;65.30
15877;DHT22;8037;51.666;7.834;2022-07-12T15:55:31;28.20;65.90
15877;DHT22;8037;51.666;7.834;2022-07-12T15:58:00;28.20;67.00
15877;DHT22;8037;51.666;7.834;2022-07-12T16:00:25;28.20;66.50
15877;DHT22;8037;51.666;7.834;2022-07-12T16:02:51;28.30;66.60
15877;DHT22;8037;51.666;7.834;2022-07-12T16:05:18;28.30;66.50
15877;DHT22;8037;51.666;7.834;2022-07-12T16:07:44;28.20;67.00
15877;DHT22;8037;51.666;7.834;2022-07-12T16:10:10;32.10;71.00
15877;DHT22;8037;51.666;7.834;2022-07-12T16:12:36;28.30;68.40
15877;DHT22;8037;51.666;7.834;2022-07-12T16:15:03;28.30;68.40
15877;DHT22;8037;51.666;7.834;2022-07-12T16:17:29;28.30;68.30
15877;DHT22;8037;51.666;7.834;2022-07-12T16:19:55;28.30;68.40
15877;DHT22;8037;51.666;7.834;2022-07-12T16:22:20;28.20;69.30
15877;DHT22;8037;51.666;7.834;2022-07-12T16:24:46;28.10;70.10
15877;DHT22;8037;51.666;7.834;2022-07-12T16:27:33;28.10;71.00
15877;DHT22;8037;51.666;7.834;2022-07-12T16:29:58;28.00;69.90
15877;DHT22;8037;51.666;7.834;2022-07-12T16:32:24;27.90;70.80
15877;DHT22;8037;51.666;7.834;2022-07-12T16:34:50;27.90;71.30
15877;DHT22;8037;51.666;7.834;2022-07-12T16:37:15;27.90;72.40
15877;DHT22;8037;51.666;7.834;2022-07-12T16:39:41;27.90;73.20
15877;DHT22;8037;51.666;7.834;2022-07-12T16:42:07;27.90;73.80
15877;DHT22;8037;51.666;7.834;2022-07-12T16:44:32;27.90;74.20
15877;DHT22;8037;51.666;7.834;2022-07-12T16:46:58;27.90;74.20
15877;DHT22;8037;51.666;7.834;2022-07-12T16:51:49;27.90;74.00
15877;DHT22;8037;51.666;7.834;2022-07-12T16:54:15;27.70;75.20
15877;DHT22;8037;51.666;7.834;2022-07-12T16:56:41;27.70;76.00
15877;DHT22;8037;51.666;7.834;2022-07-12T16:59:06;27.70;76.00
15877;DHT22;8037;51.666;7.834;2022-07-12T17:01:32;27.70;75.70
15877;DHT22;8037;51.666;7.834;2022-07-12T17:03:58;27.60;75.20
15877;DHT22;8037;51.666;7.834;2022-07-12T17:06:24;27.60;76.20
15877;DHT22;8037;51.666;7.834;2022-07-12T17:08:50;27.60;75.60
15877;DHT22;8037;51.666;7.834;2022-07-12T17:11:16;27.60;76.60
15877;DHT22;8037;51.666;7.834;2022-07-12T17:13:42;27.50;76.10
15877;DHT22;8037;51.666;7.834;2022-07-12T17:16:08;27.50;75.80
15877;DHT22;8037;51.666;7.834;2022-07-12T17:18:33;27.50;76.60
15877;DHT22;8037;51.666;7.834;2022-07-12T17:21:02;27.40;76.80
15877;DHT22;8037;51.666;7.834;2022-07-12T17:23:28;27.40;76.60
15877;DHT22;8037;51.666;7.834;2022-07-12T17:25:54;27.40;77.50
15877;DHT22;8037;51.666;7.834;2022-07-12T17:28:20;27.40;76.70
15877;DHT22;8037;51.666;7.834;2022-07-12T17:30:45;27.30;76.10
15877;DHT22;8037;51.666;7.834;2022-07-12T17:33:11;27.30;76.70
15877;DHT22;8037;51.666;7.834;2022-07-12T17:35:39;27.40;77.50
15877;DHT22;8037;51.666;7.834;2022-07-12T17:38:08;27.30;76.40
15877;DHT22;8037;51.666;7.834;2022-07-12T17:40:34;27.30;76.50
15877;DHT22;8037;51.666;7.834;2022-07-12T17:43:00;27.30;76.80
15877;DHT22;8037;51.666;7.834;2022-07-12T17:45:27;27.30;76.60
15877;DHT22;8037;51.666;7.834;2022-07-12T17:47:53;27.30;76.50
15877;DHT22;8037;51.666;7.834;2022-07-12T17:50:20;27.30;76.70
15877;DHT22;8037;51.666;7.834;2022-07-12T17:52:46;27.30;77.40
15877;DHT22;8037;51.666;7.834;2022-07-12T17:55:13;27.30;76.00
15877;DHT22;8037;51.666;7.834;2022-07-12T17:57:39;27.30;76.70
15877;DHT22;8037;51.666;7.834;2022-07-12T18:00:07;27.20;77.10
15877;DHT22;8037;51.666;7.834;2022-07-12T18:02:33;27.20;76.80
15877;DHT22;8037;51.666;7.834;2022-07-12T18:04:59;27.20;76.80
15877;DHT22;8037;51.666;7.834;2022-07-12T18:07:25;27.10;77.10
15877;DHT22;8037;51.666;7.834;2022-07-12T18:09:51;27.00;77.20
15877;DHT22;8037;51.666;7.834;2022-07-12T18:12:17;27.00;77.50
15877;DHT22;8037;51.666;7.834;2022-07-12T18:15:01;26.90;77.50
15877;DHT22;8037;51.666;7.834;2022-07-12T18:17:27;26.90;78.20
15877;DHT22;8037;51.666;7.834;2022-07-12T18:20:11;26.80;75.50
15877;DHT22;8037;51.666;7.834;2022-07-12T18:22:37;26.80;75.80
15877;DHT22;8037;51.666;7.834;2022-07-12T18:25:03;26.80;75.80
15877;DHT22;8037;51.666;7.834;2022-07-12T18:27:29;26.70;75.90
15877;DHT22;8037;51.666;7.834;2022-07-12T18:29:55;26.70;76.20
15877;DHT22;8037;51.666;7.834;2022-07-12T18:32:20;26.60;76.30
15877;DHT22;8037;51.666;7.834;2022-07-12T18:34:53;26.60;76.80
15877;DHT22;8037;51.666;7.834;2022-07-12T18:37:19;26.50;76.90
15877;DHT22;8037;51.666;7.834;2022-07-12T18:39:44;26.50;76.50
15877;DHT22;8037;51.666;7.834;2022-07-12T18:51:55;26.30;76.30
15877;DHT22;8037;51.666;7.834;2022-07-12T19:04:08;26.20;76.40
15877;DHT22;8037;51.666;7.834;2022-07-12T19:08:59;26.10;76.70
15877;DHT22;8037;51.666;7.834;2022-07-12T19:28:27;25.80;90.20
15877;DHT22;8037;51.666;7.834;2022-07-12T19:33:19;25.60;89.30
15877;DHT22;8037;51.666;7.834;2022-07-12T19:43:03;25.40;87.10
15877;DHT22;8037;51.666;7.834;2022-07-12T20:00:09;25.20;90.70
15877;DHT22;8037;51.666;7.834;2022-07-12T20:12:18;25.00;92.20
15877;DHT22;8037;51.666;7.834;2022-07-12T20:14:44;24.90;92.30
15877;DHT22;8037;51.666;7.834;2022-07-12T20:17:10;24.90;92.40
15877;DHT22;8037;51.666;7.834;2022-07-12T20:19:35;24.80;92.50